Hovedside
METAR-TAF:

METAR-TAF

Lufthavner :

Malmö, Sverige

Malmö lufthavn

breddegrad: 55-33N, lengdegrad: 013-22E, høyde over havet: 106 m

Gjeldene værobservasjon

Denne rapporten ble laget for 18 minutter siden, klokken 05:50 UTC
Vind 6 kt fra Nord-nordvest
Temperatur -2°C
Luftfuktighet 100%
Trykk 1029 hPa
Sikt 10 km eller mer
ingen skyer under 1500 m og ingen bygeskyer

METAR: ESMS 240550Z 33006KT CAVOK M02/M02 Q1029 R88/09//95

Tid: 07:08 (06:08 UTC)

Varsel

Denne rapporten ble laget for 1 time og 11 minutter siden, klokken 04:57 UTC
Varsel gyldig fra 24. klokken 06 UTC til 25. klokken 06 UTC
Vind 6 kt fra Nord-nordvest
Sikt 10 km eller mer
Få skyer i en høyde av 4000 ft
Midlertidig
fra 24. klokken 06 UTC til 24. klokken 07 UTC
Sikt: 1200 m
tåkebanker

TAF: ESMS 240457Z 2406/2506 33006KT 9999 FEW040 TEMPO 2406/2407 1200 BCFG

Værobservasjoner og værvarsel for over 4000 flyplasser (METAR- og TAF-rapporter).

Tilgjengelige stasjoner er representert av de røde og gule prikkene på kartet.

Hold musepekeren over prikken for å se navnet på stasjonen.

Klikk så for å se værobservasjoner og -varsler.

For å forandre kartet kan du klikke på den grønne knappen med svart kryss for å zoome inn, på den grønne knappen med strek for å zoome ut, eller på de grønne pilene for å se tilstøtende kart.


METAR-TAF: